Aviation Digital Data Service (ADDS)

Output produced by TAFs form (0042 UTC 26 July 2017)
found at http://aviationweather.gov/adds/tafs/
 
KEMT 252345Z 21009KT 10SM CLR 29/15 A2995
KPOC 252347Z 26010KT 10SM CLR 29/16 A2997
KFUL 252353Z 20008KT 10SM CLR 27/18 A2993 RMK AO2 SLP133 T02720178 10294 20250 58007
KBUR 252353Z 18010KT 10SM CLR 28/13 A2994 RMK AO2 SLP124 T02780133 10300 20256 56008
KBUR 252339Z 2600/2624 18009KT P6SM FEW100 SCT150 
     FM260400 14005KT P6SM SKC 
     FM261100 VRB03KT 6SM BR FEW007 
     FM261500 15004KT P6SM SKC 
     FM261900 18009KT P6SM SKC
       
KONT 252353Z 25013KT 10SM FEW110 SCT140 31/16 A2993 RMK AO2 SLP117 CB DSNT NE T03110161 10322 20256 58008
KONT 252324Z 2600/2706 25010KT P6SM SCT140 
     FM260500 VRB04KT P6SM FEW250 
     FM262000 25010KT P6SM SCT150 
     FM270500 VRB04KT P6SM FEW250
       
KCNO 252353Z 25014KT 10SM SCT110 32/17 A2993 RMK AO2 SLP129 T03170167 10339 20267 56009
KAJO 252356Z AUTO 28014G22KT 10SM CLR 29/18 A2992 RMK AO2 SLP135 T02890178 10306 20250 56012
KLGB 252353Z 30010KT 10SM CLR 27/17 A2994 RMK AO2 SLP137 T02670172 10283 20239 56009
KLGB 252339Z 2600/2624 30010KT P6SM FEW100 SCT150 
     FM260500 VRB03KT P6SM SKC 
     FM260700 VRB03KT P6SM BKN013 
     FM261600 19006KT P6SM FEW017 
     FM262200 29010KT P6SM SKC
       
KTOA 252352Z 30019KT 10SM FEW160 22/17 A2994
KHHR 252353Z 25012KT 10SM CLR 24/17 A2996 RMK AO2 SLP143 T02390172 10256 20233 58006
KLAX 252353Z 26015KT 10SM FEW015 FEW100 23/18 A2996 RMK AO2 SLP142 T02280178 10250 20228 57007
KLAX 252339Z 2600/2706 26013KT P6SM FEW100 FEW150 
     FM260300 26008KT P6SM SKC 
     FM260600 27005KT P6SM BKN011 
     FM261700 26006KT P6SM SCT015 
     FM262000 26014KT P6SM SKC 
     FM270400 26005KT P6SM SKC
       
KAVX 252351Z AUTO 24008KT 10SM CLR 20/16 A3000 RMK AO2 SLP142 T02000161 10222 20200 56009 TSNO
KSMO 252351Z 24007G16KT 210V280 10SM CLR 22/18 A2996 RMK AO2 SLP143 CB DSNT NE T02220178 10244 20222 56007
KSMO 252359Z 2600/2624 24010KT P6SM FEW100 FEW150 
     FM260400 23005KT P6SM SCT010 
     FM260700 VRB03KT P6SM BKN010 
     FM261700 23005KT P6SM SCT014 
     FM262100 24010KT P6SM SKC
       
KCMA 252355Z 26009KT 10SM CLR 25/16 A2995 RMK AO2 SLP151 T02500161 10256 20228 56010
KCMA 252359Z 2600/2624 24009KT P6SM SKC 
     FM260500 VRB03KT P6SM SKC 
     FM260700 VRB03KT 5SM BR OVC007 
     FM261700 24005KT P6SM SCT011 
     FM262000 25009KT P6SM SKC
       
KOXR 252351Z 27010KT 10SM CLR 22/17 A2996 RMK AO2 SLP145 T02170167 10228 20211 56011
KOXR 252359Z 2600/2624 25012KT P6SM SKC 
     FM260300 28007KT P6SM SCT012 
     FM260600 29005KT 6SM BR OVC008 
     FM261600 27005KT P6SM BKN012 
     FM262100 27012KT P6SM SCT012
       
KRAL 252353Z 28013G18KT 10SM CLR 31/17 A2992 RMK AO2 SLP117 T03110172 10328 20261 56009
KRIV 252358Z AUTO 30012KT 10SM CLR 31/16 A2995 RMK AO2 SLP127 T03130160 10328 20266 57008
TAF KRIV 252002Z 2520/2702 31009KT 9999 SCT100 BKN150 QNH2990INS 
     TEMPO 2521/2602 31012G18KT BKN120 TS OMTNS NE-SE 
     BECMG 2603/2604 VRB06KT 9999 SCT100 QNH2994INS 
     BECMG 2621/2622 31012KT 9999 FEW120 QNH2993INS TX33/2521Z TN17/2612Z
       
KF70 260035Z AUTO 21008G14KT 10SM CLR 26/17 A2997 RMK AO1
KRNM 252353Z 27010KT 10SM CLR 27/18 A2998 RMK AO2 SLP137 T02720183 10289 20233 55004
KCRQ 252353Z AUTO 25009KT 10SM OVC012 22/19 A2997 RMK AO2 SLP144 T02220189 10228 20211 55002
KCRQ 252324Z 2600/2624 24009KT P6SM OVC014 
     FM260200 VRB04KT P6SM OVC012 
     FM262000 27009KT P6SM BKN013
       
KOKB 252352Z AUTO 26008KT 10SM OVC016 23/19 A2995 RMK AO2 SLP143 T02330189 10261 20233 55004
KIZA 260035Z AUTO 27009KT 10SM CLR 27/14 A2995 RMK AO2